createdAt,value
2016-04-12T00:00:28.313Z,0
2016-04-12T00:01:11.253Z,0
2016-04-12T00:01:54.240Z,0
2016-04-12T00:02:37.196Z,0
2016-04-12T00:03:20.134Z,0
2016-04-12T00:04:03.073Z,0
2016-04-12T00:04:46.030Z,0
2016-04-12T00:05:28.998Z,0
2016-04-12T00:06:11.938Z,0
2016-04-12T00:06:54.878Z,0
2016-04-12T00:07:37.834Z,0
2016-04-12T00:08:20.464Z,0
2016-04-12T00:09:03.286Z,0
2016-04-12T00:09:46.211Z,0
2016-04-12T00:10:29.179Z,0
2016-04-12T00:11:12.104Z,0
2016-04-12T00:11:54.903Z,0
2016-04-12T00:12:37.859Z,0
2016-04-12T00:13:20.828Z,0
2016-04-12T00:14:03.768Z,0
2016-04-12T00:14:46.692Z,0
2016-04-12T00:15:29.645Z,0
2016-04-12T00:16:12.602Z,0
2016-04-12T00:16:55.541Z,0
2016-04-12T00:17:38.497Z,0
2016-04-12T00:18:21.435Z,0
2016-04-12T00:19:04.391Z,0
2016-04-12T00:19:47.330Z,0
2016-04-12T00:20:30.286Z,0
2016-04-12T00:21:13.240Z,0
2016-04-12T00:21:56.195Z,0
2016-04-12T00:22:39.167Z,0
2016-04-12T00:23:22.121Z,0
2016-04-12T00:24:05.076Z,0
2016-04-12T00:24:48.016Z,0
2016-04-12T00:25:30.971Z,0
2016-04-12T00:26:13.940Z,0
2016-04-12T00:26:56.913Z,0
2016-04-12T00:27:39.867Z,0
2016-04-12T00:28:22.836Z,0
2016-04-12T00:29:05.777Z,0
2016-04-12T00:29:48.733Z,0
2016-04-12T00:30:31.530Z,0
2016-04-12T00:31:14.374Z,0
2016-04-12T00:31:57.041Z,0
2016-04-12T00:32:39.814Z,0
2016-04-12T00:33:22.767Z,0
2016-04-12T00:34:05.707Z,0
2016-04-12T00:34:48.662Z,0
2016-04-12T00:35:31.603Z,0
2016-04-12T00:36:14.572Z,0
2016-04-12T00:36:57.528Z,0
2016-04-12T00:37:40.499Z,0
2016-04-12T00:38:22.640Z,0
2016-04-12T00:39:05.596Z,0
2016-04-12T00:39:48.551Z,0
2016-04-12T00:40:31.504Z,0
2016-04-12T00:41:14.445Z,0
2016-04-12T00:41:57.400Z,0
2016-04-12T00:42:40.373Z,0
2016-04-12T00:43:23.357Z,0
2016-04-12T00:44:06.297Z,0
2016-04-12T00:44:49.252Z,0
2016-04-12T00:45:32.193Z,0
2016-04-12T00:46:15.146Z,0
2016-04-12T00:46:58.102Z,0
2016-04-12T00:47:41.073Z,0
2016-04-12T00:48:24.026Z,0
2016-04-12T00:49:06.966Z,0
2016-04-12T00:49:49.907Z,0
2016-04-12T00:50:32.863Z,0
2016-04-12T00:51:15.800Z,0
2016-04-12T00:51:58.772Z,0
2016-04-12T00:52:41.758Z,0
2016-04-12T00:53:24.696Z,0
2016-04-12T00:54:07.652Z,0
2016-04-12T00:54:50.592Z,0
2016-04-12T00:55:33.548Z,0
2016-04-12T00:56:16.502Z,0
2016-04-12T00:56:59.457Z,0
2016-04-12T00:57:42.396Z,0
2016-04-12T00:58:25.349Z,0
2016-04-12T00:59:08.322Z,0
2016-04-12T00:59:51.262Z,0
2016-04-12T01:00:34.217Z,0
2016-04-12T01:01:17.139Z,0
2016-04-12T01:01:59.955Z,0
2016-04-12T01:02:42.973Z,0
2016-04-12T01:03:25.910Z,0
2016-04-12T01:04:08.866Z,0
2016-04-12T01:04:51.821Z,0
2016-04-12T01:05:34.778Z,0
2016-04-12T01:06:17.746Z,0
2016-04-12T01:07:00.671Z,0
2016-04-12T01:07:43.674Z,0
2016-04-12T01:08:26.455Z,0
2016-04-12T01:09:09.411Z,0
2016-04-12T01:09:52.351Z,0
2016-04-12T01:10:35.323Z,0
2016-04-12T01:11:18.260Z,0
2016-04-12T01:12:01.216Z,0
2016-04-12T01:12:44.172Z,0
2016-04-12T01:13:27.125Z,0
2016-04-12T01:14:10.111Z,0
2016-04-12T01:14:53.052Z,0
2016-04-12T01:15:36.023Z,0
2016-04-12T01:16:18.976Z,0
2016-04-12T01:17:02.261Z,0
2016-04-12T01:17:45.231Z,0
2016-04-12T01:18:28.153Z,0
2016-04-12T01:19:11.109Z,0
2016-04-12T01:19:54.066Z,0
2016-04-12T01:20:37.021Z,0
2016-04-12T01:21:19.974Z,0
2016-04-12T01:22:02.914Z,0
2016-04-12T01:22:45.855Z,0
2016-04-12T01:23:28.824Z,0
2016-04-12T01:24:11.764Z,0
2016-04-12T01:24:54.735Z,0
2016-04-12T01:25:37.707Z,0
2016-04-12T01:26:20.644Z,0
2016-04-12T01:27:03.600Z,0
2016-04-12T01:27:45.555Z,0
2016-04-12T01:28:28.477Z,0
2016-04-12T01:29:11.433Z,0
2016-04-12T01:29:54.374Z,0
2016-04-12T01:30:37.345Z,0
2016-04-12T01:31:20.282Z,0
2016-04-12T01:32:03.301Z,0
2016-04-12T01:32:46.241Z,0
2016-04-12T01:33:29.194Z,0
2016-04-12T01:34:12.134Z,0
2016-04-12T01:34:55.090Z,0
2016-04-12T01:35:38.030Z,0
2016-04-12T01:36:20.984Z,0
2016-04-12T01:37:03.814Z,0
2016-04-12T01:37:46.754Z,0
2016-04-12T01:38:29.707Z,0
2016-04-12T01:39:12.663Z,0
2016-04-12T01:39:55.603Z,0
2016-04-12T01:40:38.575Z,0
2016-04-12T01:41:21.512Z,0
2016-04-12T01:42:04.500Z,0
2016-04-12T01:42:47.423Z,0
2016-04-12T01:43:30.377Z,0
2016-04-12T01:44:13.318Z,0
2016-04-12T01:44:56.273Z,0
2016-04-12T01:45:39.229Z,0
2016-04-12T01:46:22.167Z,0
2016-04-12T01:47:05.247Z,0
2016-04-12T01:47:48.062Z,0
2016-04-12T01:48:31.016Z,0
2016-04-12T01:49:13.972Z,0
2016-04-12T01:49:56.942Z,0
2016-04-12T01:50:39.883Z,0
2016-04-12T01:51:22.836Z,0
2016-04-12T01:52:05.777Z,0
2016-04-12T01:52:47.732Z,0
2016-04-12T01:53:30.513Z,0
2016-04-12T01:54:13.485Z,0
2016-04-12T01:54:56.425Z,0
2016-04-12T01:55:39.397Z,0
2016-04-12T01:56:22.334Z,0
2016-04-12T01:57:05.291Z,0
2016-04-12T01:57:48.230Z,0
2016-04-12T01:58:31.168Z,0
2016-04-12T01:59:14.123Z,0
2016-04-12T01:59:57.080Z,0
2016-04-12T02:00:40.035Z,0
2016-04-12T02:01:22.988Z,0
2016-04-12T02:02:06.163Z,0
2016-04-12T02:02:49.057Z,0
2016-04-12T02:03:31.994Z,0
2016-04-12T02:04:14.934Z,0
2016-04-12T02:04:57.921Z,0
2016-04-12T02:05:40.876Z,0
2016-04-12T02:06:23.845Z,0
2016-04-12T02:07:06.817Z,0
2016-04-12T02:07:49.757Z,0
2016-04-12T02:08:32.695Z,0
2016-04-12T02:09:15.650Z,0
2016-04-12T02:09:58.606Z,0
2016-04-12T02:10:41.561Z,0
2016-04-12T02:11:24.498Z,0
2016-04-12T02:12:07.455Z,0
2016-04-12T02:12:50.395Z,0
2016-04-12T02:13:33.348Z,0
2016-04-12T02:14:16.304Z,0
2016-04-12T02:14:59.244Z,0
2016-04-12T02:15:42.200Z,0
2016-04-12T02:16:25.169Z,0
2016-04-12T02:17:08.281Z,0
2016-04-12T02:17:51.253Z,0
2016-04-12T02:18:34.225Z,0
2016-04-12T02:19:17.162Z,0
2016-04-12T02:20:00.102Z,0
2016-04-12T02:20:43.058Z,0
2016-04-12T02:21:24.980Z,0
2016-04-12T02:22:07.951Z,0
2016-04-12T02:22:50.891Z,0
2016-04-12T02:23:33.863Z,0
2016-04-12T02:24:16.816Z,0
2016-04-12T02:24:59.756Z,0
2016-04-12T02:25:42.711Z,0
2016-04-12T02:26:25.664Z,0
2016-04-12T02:27:08.621Z,0
2016-04-12T02:27:51.591Z,0
2016-04-12T02:28:34.547Z,0
2016-04-12T02:29:17.485Z,0
2016-04-12T02:30:00.457Z,0
2016-04-12T02:30:43.396Z,0
2016-04-12T02:31:26.365Z,0
2016-04-12T02:32:09.399Z,0
2016-04-12T02:32:52.340Z,0
2016-04-12T02:33:35.311Z,0
2016-04-12T02:34:18.280Z,0
2016-04-12T02:35:01.236Z,0
2016-04-12T02:35:44.177Z,0
2016-04-12T02:36:27.130Z,0
2016-04-12T02:37:10.069Z,0
2016-04-12T02:37:53.026Z,0
2016-04-12T02:38:35.996Z,0
2016-04-12T02:39:18.934Z,0
2016-04-12T02:40:01.906Z,0
2016-04-12T02:40:44.846Z,0
2016-04-12T02:41:27.799Z,0
2016-04-12T02:42:10.598Z,0
2016-04-12T02:42:53.570Z,0
2016-04-12T02:43:36.510Z,0
2016-04-12T02:44:19.463Z,0
2016-04-12T02:45:02.404Z,0
2016-04-12T02:45:45.390Z,0
2016-04-12T02:46:28.328Z,0
2016-04-12T02:47:11.503Z,0
2016-04-12T02:47:54.442Z,0
2016-04-12T02:48:37.242Z,0
2016-04-12T02:49:20.180Z,0
2016-04-12T02:50:03.151Z,0
2016-04-12T02:50:45.310Z,0
2016-04-12T02:51:28.263Z,0
2016-04-12T02:52:11.188Z,0
2016-04-12T02:52:54.144Z,0
2016-04-12T02:53:37.099Z,0
2016-04-12T02:54:20.068Z,0
2016-04-12T02:55:03.039Z,0
2016-04-12T02:55:45.995Z,0
2016-04-12T02:56:28.933Z,0
2016-04-12T02:57:10.888Z,0
2016-04-12T02:57:53.829Z,0
2016-04-12T02:58:36.768Z,0
2016-04-12T02:59:19.721Z,0
2016-04-12T03:00:02.677Z,0
2016-04-12T03:00:45.633Z,0
2016-04-12T03:01:28.587Z,0
2016-04-12T03:02:11.636Z,0
2016-04-12T03:02:54.482Z,0
2016-04-12T03:03:37.438Z,0
2016-04-12T03:04:20.407Z,0
2016-04-12T03:05:03.379Z,0
2016-04-12T03:05:46.318Z,0
2016-04-12T03:06:29.256Z,0
2016-04-12T03:07:12.212Z,0
2016-04-12T03:07:55.184Z,0
2016-04-12T03:08:38.108Z,0
2016-04-12T03:09:21.076Z,0
2016-04-12T03:10:04.017Z,0
2016-04-12T03:10:46.989Z,0
2016-04-12T03:11:29.973Z,0
2016-04-12T03:12:12.929Z,0
2016-04-12T03:12:55.870Z,0
2016-04-12T03:13:38.825Z,0
2016-04-12T03:14:21.762Z,0
2016-04-12T03:15:04.734Z,0
2016-04-12T03:15:47.658Z,0
2016-04-12T03:16:30.642Z,0
2016-04-12T03:17:13.551Z,0
2016-04-12T03:17:56.539Z,0
2016-04-12T03:18:39.510Z,0
2016-04-12T03:19:22.463Z,0
2016-04-12T03:20:05.435Z,0
2016-04-12T03:20:48.407Z,0
2016-04-12T03:21:31.345Z,0
2016-04-12T03:22:14.284Z,0
2016-04-12T03:22:57.240Z,0
2016-04-12T03:23:40.180Z,0
2016-04-12T03:24:23.149Z,0
2016-04-12T03:25:06.089Z,0
2016-04-12T03:25:49.045Z,0
2016-04-12T03:26:31.998Z,0
2016-04-12T03:27:14.938Z,0
2016-04-12T03:27:57.894Z,0
2016-04-12T03:28:40.833Z,0
2016-04-12T03:29:23.802Z,0
2016-04-12T03:30:06.758Z,0
2016-04-12T03:30:49.730Z,0
2016-04-12T03:31:32.714Z,0
2016-04-12T03:32:15.795Z,0
2016-04-12T03:32:58.626Z,0
2016-04-12T03:33:41.566Z,0
2016-04-12T03:34:24.566Z,0
2016-04-12T03:35:07.522Z,0
2016-04-12T03:35:50.493Z,0
2016-04-12T03:36:33.274Z,0
2016-04-12T03:37:16.230Z,0
2016-04-12T03:37:59.171Z,0
2016-04-12T03:38:42.127Z,0
2016-04-12T03:39:25.080Z,0
2016-04-12T03:40:08.036Z,0
2016-04-12T03:40:50.976Z,0
2016-04-12T03:41:33.945Z,0
2016-04-12T03:42:16.885Z,0
2016-04-12T03:42:59.825Z,0
2016-04-12T03:43:42.765Z,0
2016-04-12T03:44:25.734Z,0
2016-04-12T03:45:08.659Z,0
2016-04-12T03:45:51.614Z,0
2016-04-12T03:46:34.583Z,0
2016-04-12T03:47:17.898Z,0
2016-04-12T03:48:01.103Z,0
2016-04-12T03:48:44.059Z,0
2016-04-12T03:49:27.012Z,0
2016-04-12T03:50:09.984Z,0
2016-04-12T03:50:52.924Z,0
2016-04-12T03:51:35.880Z,0
2016-04-12T03:52:18.833Z,0
2016-04-12T03:53:01.789Z,0
2016-04-12T03:53:44.745Z,0
2016-04-12T03:54:27.714Z,0
2016-04-12T03:55:10.670Z,0
2016-04-12T03:55:53.610Z,0
2016-04-12T03:56:36.550Z,0
2016-04-12T03:57:19.503Z,0
2016-04-12T03:58:02.474Z,0
2016-04-12T03:58:45.447Z,0
2016-04-12T03:59:28.384Z,0
2016-04-12T04:00:11.355Z,0
2016-04-12T04:00:54.311Z,0
2016-04-12T04:01:37.266Z,0
2016-04-12T04:02:20.282Z,0
2016-04-12T04:03:03.425Z,0
2016-04-12T04:03:46.366Z,0
2016-04-12T04:04:29.303Z,0
2016-04-12T04:05:12.291Z,0
2016-04-12T04:05:55.246Z,0
2016-04-12T04:06:38.201Z,0
2016-04-12T04:07:21.154Z,0
2016-04-12T04:08:04.110Z,0
2016-04-12T04:08:47.052Z,0
2016-04-12T04:09:30.021Z,0
2016-04-12T04:10:12.991Z,0
2016-04-12T04:10:55.932Z,0
2016-04-12T04:11:38.903Z,0
2016-04-12T04:12:21.824Z,0
2016-04-12T04:13:04.796Z,0
2016-04-12T04:13:47.721Z,0
2016-04-12T04:14:30.674Z,4
2016-04-12T04:15:13.661Z,4
2016-04-12T04:15:56.617Z,4
2016-04-12T04:16:39.556Z,4
2016-04-12T04:17:22.431Z,0
2016-04-12T04:18:04.498Z,0
2016-04-12T04:18:47.468Z,4
2016-04-12T04:19:30.453Z,4
2016-04-12T04:20:13.409Z,4
2016-04-12T04:20:56.348Z,4
2016-04-12T04:21:39.336Z,4
2016-04-12T04:22:22.273Z,4
2016-04-12T04:23:05.214Z,8
2016-04-12T04:23:48.169Z,4
2016-04-12T04:24:31.138Z,8
2016-04-12T04:25:14.094Z,8
2016-04-12T04:25:57.066Z,8
2016-04-12T04:26:40.006Z,12
2016-04-12T04:27:22.975Z,12
2016-04-12T04:28:05.914Z,12
2016-04-12T04:28:48.886Z,12
2016-04-12T04:29:31.824Z,12
2016-04-12T04:30:14.795Z,16
2016-04-12T04:30:57.750Z,20
2016-04-12T04:31:40.707Z,20
2016-04-12T04:32:23.722Z,24
2016-04-12T04:33:06.881Z,24
2016-04-12T04:33:49.852Z,24
2016-04-12T04:34:32.790Z,28
2016-04-12T04:35:14.980Z,28
2016-04-12T04:35:57.920Z,28
2016-04-12T04:36:40.892Z,32
2016-04-12T04:37:23.814Z,36
2016-04-12T04:38:06.754Z,36
2016-04-12T04:38:49.694Z,40
2016-04-12T04:39:32.663Z,40
2016-04-12T04:40:15.604Z,48
2016-04-12T04:40:58.543Z,44
2016-04-12T04:41:41.515Z,48
2016-04-12T04:42:24.468Z,48
2016-04-12T04:43:07.408Z,56
2016-04-12T04:43:50.364Z,56
2016-04-12T04:44:33.301Z,60
2016-04-12T04:45:16.257Z,60
2016-04-12T04:45:59.041Z,64
2016-04-12T04:46:41.997Z,68
2016-04-12T04:47:24.965Z,72
2016-04-12T04:48:07.796Z,72
2016-04-12T04:48:50.737Z,76
2016-04-12T04:49:33.674Z,80
2016-04-12T04:50:16.615Z,76
2016-04-12T04:50:59.601Z,80
2016-04-12T04:51:42.542Z,84
2016-04-12T04:52:25.495Z,88
2016-04-12T04:53:08.434Z,92
2016-04-12T04:53:51.392Z,96
2016-04-12T04:54:34.360Z,100
2016-04-12T04:55:17.331Z,104
2016-04-12T04:56:00.303Z,112
2016-04-12T04:56:43.242Z,120
2016-04-12T04:57:26.195Z,128
2016-04-12T04:58:09.151Z,136
2016-04-12T04:58:51.295Z,140
2016-04-12T04:59:34.264Z,144
2016-04-12T05:00:17.188Z,148
2016-04-12T05:01:00.144Z,148
2016-04-12T05:01:43.069Z,156
2016-04-12T05:02:26.084Z,160
2016-04-12T05:03:09.086Z,172
2016-04-12T05:03:52.027Z,184
2016-04-12T05:04:34.980Z,196
2016-04-12T05:05:17.921Z,208
2016-04-12T05:06:00.877Z,220
2016-04-12T05:06:43.847Z,228
2016-04-12T05:07:26.785Z,240
2016-04-12T05:08:09.585Z,256
2016-04-12T05:08:52.400Z,268
2016-04-12T05:09:35.353Z,280
2016-04-12T05:10:18.310Z,292
2016-04-12T05:11:01.306Z,304
2016-04-12T05:11:44.245Z,316
2016-04-12T05:12:27.198Z,328
2016-04-12T05:13:12.890Z,344
2016-04-12T05:13:55.845Z,360
2016-04-12T05:14:38.800Z,384
2016-04-12T05:15:21.753Z,408
2016-04-12T05:16:04.695Z,432
2016-04-12T05:16:47.650Z,448
2016-04-12T05:17:30.650Z,464
2016-04-12T05:18:13.668Z,488
2016-04-12T05:18:56.608Z,508
2016-04-12T05:19:39.580Z,512
2016-04-12T05:20:22.533Z,512
2016-04-12T05:21:05.505Z,512
2016-04-12T05:21:48.460Z,508
2016-04-12T05:22:31.413Z,512
2016-04-12T05:23:14.353Z,512
2016-04-12T05:23:57.325Z,512
2016-04-12T05:24:40.312Z,512
2016-04-12T05:25:23.281Z,524
2016-04-12T05:26:06.237Z,536
2016-04-12T05:26:49.192Z,540
2016-04-12T05:27:32.161Z,540
2016-04-12T05:28:15.149Z,552
2016-04-12T05:28:58.104Z,556
2016-04-12T05:29:41.060Z,568
2016-04-12T05:30:24.029Z,580
2016-04-12T05:31:06.969Z,604
2016-04-12T05:31:49.909Z,624
2016-04-12T05:32:32.846Z,636
2016-04-12T05:33:15.818Z,648
2016-04-12T05:33:58.757Z,664
2016-04-12T05:34:41.730Z,680
2016-04-12T05:35:25.480Z,708
2016-04-12T05:36:10.248Z,740
2016-04-12T05:36:56.359Z,784
2016-04-12T05:37:39.644Z,824
2016-04-12T05:38:22.597Z,852
2016-04-12T05:39:05.412Z,876
2016-04-12T05:39:48.352Z,900
2016-04-12T05:40:31.290Z,932
2016-04-12T05:41:15.262Z,952
2016-04-12T05:41:59.311Z,956
2016-04-12T05:42:42.251Z,976
2016-04-12T05:43:25.376Z,1024
2016-04-12T05:44:09.112Z,1096
2016-04-12T05:44:53.132Z,1148
2016-04-12T05:45:36.413Z,1200
2016-04-12T05:46:19.806Z,1292
2016-04-12T05:47:02.762Z,1392
2016-04-12T05:47:45.733Z,1504
2016-04-12T05:48:28.389Z,1608
2016-04-12T05:49:11.345Z,1700
2016-04-12T05:49:54.489Z,1776
2016-04-12T05:50:37.598Z,1844
2016-04-12T05:51:20.694Z,1944
2016-04-12T05:52:04.447Z,2040
2016-04-12T05:52:48.966Z,2104
2016-04-12T05:53:34.122Z,2144
2016-04-12T05:54:18.500Z,2172
2016-04-12T05:55:02.252Z,2132
2016-04-12T05:55:46.333Z,2088
2016-04-12T05:56:30.739Z,2060
2016-04-12T05:57:14.773Z,1976
2016-04-12T05:58:01.807Z,1848
2016-04-12T05:58:49.200Z,1708
2016-04-12T05:59:33.247Z,1608
2016-04-12T06:00:17.860Z,1560
2016-04-12T06:01:01.768Z,1524
2016-04-12T06:01:45.693Z,1500
2016-04-12T06:02:30.177Z,1524
2016-04-12T06:03:14.180Z,1560
2016-04-12T06:03:57.964Z,1564
2016-04-12T06:04:42.013Z,1576
2016-04-12T06:05:25.669Z,1560
2016-04-12T06:06:08.843Z,1524
2016-04-12T06:06:51.972Z,1496
2016-04-12T06:07:34.254Z,1532
2016-04-12T06:08:17.271Z,1604
2016-04-12T06:09:00.227Z,1652
2016-04-12T06:09:43.168Z,1668
2016-04-12T06:10:26.137Z,1700
2016-04-12T06:11:09.076Z,1748
2016-04-12T06:11:52.032Z,1760
2016-04-12T06:12:34.985Z,1780
2016-04-12T06:13:17.940Z,1832
2016-04-12T06:14:01.115Z,1932
2016-04-12T06:14:44.290Z,2068
2016-04-12T06:15:27.306Z,2232
2016-04-12T06:16:10.246Z,2396
2016-04-12T06:16:53.201Z,2540
2016-04-12T06:17:36.248Z,2632
2016-04-12T06:18:19.204Z,2628
2016-04-12T06:19:02.176Z,2560
2016-04-12T06:19:45.116Z,2492
2016-04-12T06:20:28.084Z,2424
2016-04-12T06:21:11.041Z,2324
2016-04-12T06:21:53.997Z,2168
2016-04-12T06:22:36.965Z,2044
2016-04-12T06:23:19.890Z,2024
2016-04-12T06:24:02.845Z,2072
2016-04-12T06:24:45.817Z,2144
2016-04-12T06:25:28.786Z,2208
2016-04-12T06:26:11.601Z,2252
2016-04-12T06:26:54.557Z,2308
2016-04-12T06:27:37.494Z,2360
2016-04-12T06:28:20.434Z,2412
2016-04-12T06:29:03.406Z,2408
2016-04-12T06:29:46.361Z,2336
2016-04-12T06:30:29.315Z,2292
2016-04-12T06:31:12.271Z,2320
2016-04-12T06:31:55.227Z,2376
2016-04-12T06:32:38.196Z,2420
2016-04-12T06:33:21.135Z,2504
2016-04-12T06:34:03.951Z,2644
2016-04-12T06:34:46.875Z,2824
2016-04-12T06:35:29.829Z,3008
2016-04-12T06:36:12.816Z,3232
2016-04-12T06:36:55.787Z,3588
2016-04-12T06:37:38.771Z,3996
2016-04-12T06:38:21.743Z,4368
2016-04-12T06:39:04.699Z,4732
2016-04-12T06:39:47.639Z,5024
2016-04-12T06:40:30.608Z,5240
2016-04-12T06:41:13.563Z,5392
2016-04-12T06:41:56.597Z,5516
2016-04-12T06:42:39.568Z,5680
2016-04-12T06:43:22.521Z,5888
2016-04-12T06:44:05.478Z,6156
2016-04-12T06:44:48.637Z,6464
2016-04-12T06:45:31.574Z,6816
2016-04-12T06:46:14.389Z,7244
2016-04-12T06:46:57.376Z,8004
2016-04-12T06:47:40.801Z,7812
2016-04-12T06:48:23.754Z,7484
2016-04-12T06:49:06.725Z,8080
2016-04-12T06:49:49.681Z,8168
2016-04-12T06:50:32.634Z,7908
2016-04-12T06:51:15.590Z,7332
2016-04-12T06:51:58.578Z,7108
2016-04-12T06:52:41.533Z,6856
2016-04-12T06:53:24.502Z,6628
2016-04-12T06:54:07.458Z,6252
2016-04-12T06:54:50.414Z,6220
2016-04-12T06:55:33.351Z,6324
2016-04-12T06:56:16.307Z,6412
2016-04-12T06:56:59.263Z,6516
2016-04-12T06:57:42.234Z,6672
2016-04-12T06:58:25.187Z,6692
2016-04-12T06:59:08.158Z,6732
2016-04-12T06:59:51.099Z,6768
2016-04-12T07:00:34.052Z,6980
2016-04-12T07:01:17.007Z,7228
2016-04-12T07:01:59.979Z,7448
2016-04-12T07:02:42.950Z,7572
2016-04-12T07:03:25.888Z,7548
2016-04-12T07:04:08.610Z,7324
2016-04-12T07:04:51.565Z,7088
2016-04-12T07:05:34.534Z,7020
2016-04-12T07:06:17.474Z,7032
2016-04-12T07:07:00.430Z,7212
2016-04-12T07:07:43.385Z,7556
2016-04-12T07:08:26.338Z,7956
2016-04-12T07:09:09.310Z,8380
2016-04-12T07:09:52.266Z,8884
2016-04-12T07:10:35.235Z,9464
2016-04-12T07:11:18.190Z,9960
2016-04-12T07:12:00.974Z,10232
2016-04-12T07:12:43.946Z,10368
2016-04-12T07:13:26.915Z,10776
2016-04-12T07:14:09.887Z,11360
2016-04-12T07:14:52.842Z,10580
2016-04-12T07:15:35.795Z,11016
2016-04-12T07:16:18.751Z,12540
2016-04-12T07:17:01.723Z,11764
2016-04-12T07:17:44.662Z,12004
2016-04-12T07:18:27.662Z,13476
2016-04-12T07:19:10.462Z,13384
2016-04-12T07:19:53.434Z,12916
2016-04-12T07:20:36.403Z,12812
2016-04-12T07:21:19.359Z,13104
2016-04-12T07:22:02.298Z,13984
2016-04-12T07:22:45.270Z,15080
2016-04-12T07:23:28.239Z,13380
2016-04-12T07:24:11.178Z,12976
2016-04-12T07:24:54.134Z,12688
2016-04-12T07:25:37.103Z,12724
2016-04-12T07:26:20.075Z,15208
2016-04-12T07:27:03.031Z,14188
2016-04-12T07:27:46.096Z,13980
2016-04-12T07:28:29.064Z,13608
2016-04-12T07:29:12.020Z,12720
2016-04-12T07:29:54.992Z,13572
2016-04-12T07:30:37.961Z,12340
2016-04-12T07:31:20.775Z,12556
2016-04-12T07:32:03.732Z,12720
2016-04-12T07:32:46.703Z,17760
2016-04-12T07:33:29.656Z,12176
2016-04-12T07:34:12.628Z,11980
2016-04-12T07:34:55.599Z,15620
2016-04-12T07:35:38.552Z,13776
2016-04-12T07:36:21.492Z,12508
2016-04-12T07:37:04.449Z,15288
2016-04-12T07:37:47.419Z,14484
2016-04-12T07:38:30.373Z,16544
2016-04-12T07:39:13.344Z,13880
2016-04-12T07:39:56.285Z,17152
2016-04-12T07:40:39.254Z,18432
2016-04-12T07:41:22.209Z,17664
2016-04-12T07:42:05.168Z,12380
2016-04-12T07:42:48.188Z,12148
2016-04-12T07:43:31.156Z,12796
2016-04-12T07:44:14.160Z,17120
2016-04-12T07:44:57.179Z,15728
2016-04-12T07:45:40.132Z,18656
2016-04-12T07:46:23.169Z,19008
2016-04-12T07:47:06.170Z,20192
2016-04-12T07:47:49.143Z,19680
2016-04-12T07:48:32.080Z,18400
2016-04-12T07:49:15.068Z,19584
2016-04-12T07:49:58.042Z,20352
2016-04-12T07:50:41.062Z,21696
2016-04-12T07:51:24.000Z,23264
2016-04-12T07:52:07.019Z,24320
2016-04-12T07:52:49.997Z,25664
2016-04-12T07:53:32.965Z,26560
2016-04-12T07:54:15.926Z,27008
2016-04-12T07:54:58.904Z,26880
2016-04-12T07:55:41.882Z,27360
2016-04-12T07:56:24.851Z,27904
2016-04-12T07:57:07.813Z,27904
2016-04-12T07:57:50.755Z,27520
2016-04-12T07:58:33.708Z,28032
2016-04-12T07:59:16.698Z,27904
2016-04-12T07:59:59.672Z,28256
2016-04-12T08:00:42.629Z,28512
2016-04-12T08:01:25.582Z,29120
2016-04-12T08:02:08.556Z,29952
2016-04-12T08:02:51.544Z,29984
2016-04-12T08:03:34.528Z,30240
2016-04-12T08:04:17.485Z,31168
2016-04-12T08:05:00.457Z,18144
2016-04-12T08:05:43.413Z,33344
2016-04-12T08:06:26.398Z,25216
2016-04-12T08:07:09.355Z,12752
2016-04-12T08:07:52.327Z,19040
2016-04-12T08:08:35.300Z,15332
2016-04-12T08:09:18.256Z,13540
2016-04-12T08:10:01.227Z,27616
2016-04-12T08:10:44.215Z,17100
2016-04-12T08:11:27.184Z,18560
2016-04-12T08:12:10.140Z,33664
2016-04-12T08:12:53.095Z,42720
2016-04-12T08:13:36.049Z,42816
2016-04-12T08:14:19.025Z,23776
2016-04-12T08:15:01.981Z,20672
2016-04-12T08:15:44.953Z,16840
2016-04-12T08:16:27.906Z,17568
2016-04-12T08:17:10.894Z,18272
2016-04-12T08:17:53.833Z,26912
2016-04-12T08:18:36.802Z,26720
2016-04-12T08:19:19.757Z,37152
2016-04-12T08:20:02.730Z,48448
2016-04-12T08:20:45.700Z,48736
2016-04-12T08:21:28.638Z,43808
2016-04-12T08:22:11.625Z,21920
2016-04-12T08:22:54.612Z,41152
2016-04-12T08:23:37.565Z,52576
2016-04-12T08:24:20.538Z,51424
2016-04-12T08:25:03.508Z,55008
2016-04-12T08:25:46.479Z,42112
2016-04-12T08:26:29.463Z,59136
2016-04-12T08:27:12.420Z,42272
2016-04-12T08:27:55.376Z,60032
2016-04-12T08:28:38.360Z,59584
2016-04-12T08:29:21.316Z,58432
2016-04-12T08:30:04.272Z,59968
2016-04-12T08:30:47.227Z,52416
2016-04-12T08:31:30.196Z,58944
2016-04-12T08:32:13.168Z,59296
2016-04-12T08:32:56.123Z,63232
2016-04-12T08:33:39.076Z,64928
2016-04-12T08:34:22.032Z,65760
2016-04-12T08:35:05.020Z,61760
2016-04-12T08:35:47.976Z,62368
2016-04-12T08:36:30.960Z,63872
2016-04-12T08:37:13.915Z,65632
2016-04-12T08:37:56.887Z,67840
2016-04-12T08:38:39.856Z,70624
2016-04-12T08:39:22.828Z,70240
2016-04-12T08:40:05.815Z,69312
2016-04-12T08:40:48.770Z,68192
2016-04-12T08:41:31.739Z,66208
2016-04-12T08:42:14.695Z,66464
2016-04-12T08:42:57.667Z,68000
2016-04-12T08:43:40.635Z,68640
2016-04-12T08:44:23.591Z,67968
2016-04-12T08:45:06.547Z,69568
2016-04-12T08:45:49.347Z,71360
2016-04-12T08:46:32.331Z,71648
2016-04-12T08:47:15.286Z,71616
2016-04-12T08:47:58.242Z,70848
2016-04-12T08:48:41.242Z,71232
2016-04-12T08:49:24.198Z,73664
2016-04-12T08:50:07.169Z,75552
2016-04-12T08:50:50.141Z,70368
2016-04-12T08:51:33.125Z,60384
2016-04-12T08:52:16.097Z,54784
2016-04-12T08:52:59.083Z,59104
2016-04-12T08:53:42.036Z,66272
2016-04-12T08:54:25.024Z,58016
2016-04-12T08:55:08.042Z,64544
2016-04-12T08:55:51.014Z,68416
2016-04-12T08:56:33.983Z,71488
2016-04-12T08:57:17.172Z,67328
2016-04-12T08:58:00.129Z,68224
2016-04-12T08:58:43.100Z,75712
2016-04-12T08:59:26.053Z,74720
2016-04-12T09:00:09.024Z,75072
2016-04-12T09:00:52.012Z,74752
2016-04-12T09:01:34.996Z,69408
2016-04-12T09:02:17.983Z,73024
2016-04-12T09:03:00.798Z,71232
2016-04-12T09:03:43.770Z,70304
2016-04-12T09:04:26.738Z,67840
2016-04-12T09:05:09.693Z,61984
2016-04-12T09:05:52.681Z,65632
2016-04-12T09:06:35.650Z,61056
2016-04-12T09:07:18.606Z,63808
2016-04-12T09:08:01.546Z,70496
2016-04-12T09:08:44.689Z,80864
2016-04-12T09:09:27.678Z,81728
2016-04-12T09:10:10.634Z,77248
2016-04-12T09:10:53.622Z,69632
2016-04-12T09:11:36.575Z,69120
2016-04-12T09:12:19.546Z,73280
2016-04-12T09:13:02.517Z,71456
2016-04-12T09:13:45.505Z,77760
2016-04-12T09:14:28.458Z,76064
2016-04-12T09:15:11.444Z,75872
2016-04-12T09:15:54.416Z,79008
2016-04-12T09:16:37.228Z,81248
2016-04-12T09:17:20.200Z,80512
2016-04-12T09:18:03.203Z,78112
2016-04-12T09:18:46.111Z,78176
2016-04-12T09:19:29.252Z,79936
2016-04-12T09:20:12.192Z,79360
2016-04-12T09:20:55.179Z,79136
2016-04-12T09:21:38.132Z,76000
2016-04-12T09:22:21.135Z,73664
2016-04-12T09:23:04.107Z,73568
2016-04-12T09:23:47.078Z,74880
2016-04-12T09:24:30.032Z,76384
2016-04-12T09:25:13.002Z,67872
2016-04-12T09:25:55.958Z,83552
2016-04-12T09:26:38.943Z,83520
2016-04-12T09:27:21.930Z,84000
2016-04-12T09:28:04.917Z,82688
2016-04-12T09:28:47.888Z,80192
2016-04-12T09:29:30.841Z,75424
2016-04-12T09:30:13.829Z,76992
2016-04-12T09:30:56.801Z,83680
2016-04-12T09:31:39.863Z,83168
2016-04-12T09:32:22.834Z,79520
2016-04-12T09:33:05.806Z,85824
2016-04-12T09:33:48.793Z,83680
2016-04-12T09:34:31.762Z,78208
2016-04-12T09:35:14.749Z,76640
2016-04-12T09:35:57.704Z,84032
2016-04-12T09:36:40.673Z,84128
2016-04-12T09:37:23.645Z,82560
2016-04-12T09:38:06.647Z,80448
2016-04-12T09:38:49.618Z,77856
2016-04-12T09:39:32.587Z,77280
2016-04-12T09:40:15.559Z,76960
2016-04-12T09:40:58.546Z,77184
2016-04-12T09:41:41.515Z,80032
2016-04-12T09:42:24.501Z,82368
2016-04-12T09:43:07.489Z,81248
2016-04-12T09:43:50.460Z,78720
2016-04-12T09:44:33.413Z,79968
2016-04-12T09:45:16.447Z,83040
2016-04-12T09:45:59.450Z,86784
2016-04-12T09:46:42.403Z,87776
2016-04-12T09:47:25.390Z,87424
2016-04-12T09:48:08.377Z,88064
2016-04-12T09:48:51.349Z,87968
2016-04-12T09:49:34.302Z,84160
2016-04-12T09:50:17.273Z,83872
2016-04-12T09:51:00.244Z,83392
2016-04-12T09:51:43.229Z,82272
2016-04-12T09:52:26.184Z,85600
2016-04-12T09:53:09.155Z,88352
2016-04-12T09:53:52.144Z,88576
2016-04-12T09:54:35.128Z,85376
2016-04-12T09:55:18.099Z,80512
2016-04-12T09:56:01.086Z,78752
2016-04-12T09:56:44.071Z,78336